Time;durP1;ratioP1;P1;durP2;ratioP2;P2;SDS_P1;SDS_P2;PMS_P1;PMS_P2;Temp;Humidity;BMP_temperature;BMP_pressure;BME280_temperature;BME280_humidity;BME280_pressure;Samples;Min_cycle;Max_cycle;Signal;HPM_P1;HPM_P2
2023/10/07 00:02:13;;;;;;;23.75;10.35;;;;;;;9.44;nan;101428.25;4949460;29;20113;-71
2023/10/07 00:04:44;;;;;;;20.80;9.95;;;;;;;9.45;nan;101445.63;4948928;28;20465;-71
2023/10/07 00:07:10;;;;;;;23.40;9.75;;;;;;;9.37;nan;101435.28;4948058;28;20071;-71
2023/10/07 00:09:41;;;;;;;25.48;10.18;;;;;;;9.35;nan;101438.09;4949651;28;20094;-70
2023/10/07 00:12:12;;;;;;;26.50;9.88;;;;;;;9.19;nan;101417.34;4948145;28;20039;-70
2023/10/07 00:14:38;;;;;;;34.42;10.60;;;;;;;9.23;nan;101428.28;4947529;28;20089;-71
2023/10/07 00:17:06;;;;;;;21.67;9.68;;;;;;;9.04;nan;101401.66;4949782;28;20724;-72
2023/10/07 00:19:33;;;;;;;26.00;10.70;;;;;;;9.17;nan;101429.88;4952753;28;20035;-71
2023/10/07 00:21:59;;;;;;;19.77;10.25;;;;;;;9.11;nan;101426.16;4948514;28;20030;-70
2023/10/07 00:24:26;;;;;;;28.67;9.88;;;;;;;9.04;nan;101424.50;4948584;28;20086;-73
2023/10/07 00:26:52;;;;;;;23.73;9.90;;;;;;;9.01;nan;101404.69;4948685;28;20070;-71
2023/10/07 00:29:21;;;;;;;19.45;9.45;;;;;;;8.90;nan;101395.47;4949610;28;20030;-70
2023/10/07 00:31:50;;;;;;;24.42;10.23;;;;;;;8.98;nan;101407.69;4945885;28;20141;-71
2023/10/07 00:34:18;;;;;;;27.40;9.32;;;;;;;8.96;nan;101403.63;4948957;28;20474;-71
2023/10/07 00:36:47;;;;;;;26.13;10.45;;;;;;;8.90;nan;101399.94;4947928;28;20070;-71
2023/10/07 00:39:20;;;;;;;24.73;9.70;;;;;;;8.91;nan;101399.75;4949188;28;20429;-71
2023/10/07 00:41:47;;;;;;;22.35;9.90;;;;;;;8.81;nan;101390.53;4951110;28;20269;-72
2023/10/07 00:47:13;;;;;;;22.88;9.38;;;;;;;8.85;nan;101410.19;4933555;28;20047;-71
2023/10/07 00:49:42;;;;;;;24.75;9.32;;;;;;;8.63;nan;101376.06;4947591;28;20513;-71
2023/10/07 00:52:23;;;;;;;20.45;9.00;;;;;;;8.81;nan;101409.75;4950787;28;20039;-70
2023/10/07 00:58:20;;;;;;;26.83;9.48;;;;;;;8.63;nan;101399.69;4953617;28;20604;-72
2023/10/07 01:02:51;;;;;;;21.95;10.50;;;;;;;8.62;nan;101408.56;4950913;28;20450;-72
2023/10/07 01:05:26;;;;;;;27.98;9.68;;;;;;;8.66;nan;101417.69;4951531;28;20019;-72
2023/10/07 01:07:55;;;;;;;25.02;9.43;;;;;;;8.68;nan;101420.13;4947355;28;20047;-71
2023/10/07 01:10:31;;;;;;;22.20;9.50;;;;;;;8.64;nan;101419.72;4952210;28;20027;-72
2023/10/07 01:13:03;;;;;;;20.80;9.60;;;;;;;8.56;nan;101403.25;4949194;28;20626;-70
2023/10/07 01:15:34;;;;;;;20.85;9.10;;;;;;;8.52;nan;101405.41;4951323;28;20090;-72
2023/10/07 01:18:05;;;;;;;19.88;9.95;;;;;;;8.29;nan;101379.31;4953610;28;20031;-74
2023/10/07 01:20:58;;;;;;;18.30;8.82;;;;;;;8.46;nan;101407.00;4946779;28;20035;-74
2023/10/07 01:23:33;;;;;;;17.83;9.77;;;;;;;8.45;nan;101404.53;4951681;28;20046;-73
2023/10/07 01:25:59;;;;;;;24.95;9.15;;;;;;;8.47;nan;101416.47;4953514;28;20030;-72
2023/10/07 01:28:26;;;;;;;23.80;9.60;;;;;;;8.38;nan;101406.25;4951658;28;20027;-73
2023/10/07 01:31:07;;;;;;;20.10;8.77;;;;;;;8.39;nan;101407.88;4951536;28;20155;-71
2023/10/07 01:33:47;;;;;;;20.55;8.95;;;;;;;8.36;nan;101411.69;4951790;28;20077;-71
2023/10/07 01:38:51;;;;;;;17.55;8.63;;;;;;;8.34;nan;101416.31;4949624;28;20035;-70
2023/10/07 01:41:19;;;;;;;16.58;9.05;;;;;;;8.33;nan;101419.91;4954091;28;20445;-71
2023/10/07 01:43:58;;;;;;;21.25;8.82;;;;;;;8.19;nan;101400.59;4962268;28;20433;-72
2023/10/07 01:46:27;;;;;;;25.83;9.52;;;;;;;8.11;nan;101392.81;4950239;28;20076;-71
2023/10/07 01:48:57;;;;;;;24.25;9.63;;;;;;;7.96;nan;101389.44;4952417;28;20030;-71
2023/10/07 01:51:27;;;;;;;22.77;8.98;;;;;;;7.96;nan;101397.28;4947681;28;20476;-71
2023/10/07 01:53:56;;;;;;;21.42;9.02;;;;;;;7.94;nan;101388.78;4948065;28;20043;-71
2023/10/07 01:56:29;;;;;;;18.90;8.60;;;;;;;7.93;nan;101389.81;4951137;28;20035;-71
2023/10/07 01:58:57;;;;;;;18.52;9.10;;;;;;;7.94;nan;101380.94;4952341;28;20055;-71
2023/10/07 02:01:28;;;;;;;20.47;9.00;;;;;;;7.94;nan;101379.09;4953009;28;20101;-71
2023/10/07 02:03:57;;;;;;;21.35;8.85;;;;;;;7.94;nan;101386.97;4949453;28;20277;-71
2023/10/07 02:06:24;;;;;;;22.02;8.40;;;;;;;7.93;nan;101395.84;4953139;28;20571;-72
2023/10/07 02:08:50;;;;;;;19.02;8.27;;;;;;;7.84;nan;101392.50;4949010;28;20099;-73
2023/10/07 02:11:25;;;;;;;18.60;8.63;;;;;;;7.76;nan;101384.75;4951027;28;20027;-71
2023/10/07 02:13:52;;;;;;;24.23;9.13;;;;;;;7.64;nan;101370.47;4949570;28;20031;-73
2023/10/07 02:16:17;;;;;;;18.15;8.52;;;;;;;7.82;nan;101396.31;4951505;28;20031;-72
2023/10/07 02:18:44;;;;;;;17.38;9.10;;;;;;;7.73;nan;101371.97;4953371;28;20027;-74
2023/10/07 02:21:10;;;;;;;19.70;8.68;;;;;;;7.73;nan;101384.28;4951530;28;20110;-73
2023/10/07 02:23:37;;;;;;;26.27;9.18;;;;;;;7.84;nan;101402.19;4949582;28;20139;-72
2023/10/07 02:26:06;;;;;;;19.85;8.75;;;;;;;7.75;nan;101382.28;4943762;28;20512;-73
2023/10/07 02:28:35;;;;;;;18.67;8.32;;;;;;;7.87;nan;101401.81;4948830;28;20031;-73
2023/10/07 02:31:09;;;;;;;25.53;8.50;;;;;;;7.88;nan;101403.47;4951893;28;20027;-72
2023/10/07 02:33:41;;;;;;;19.98;8.63;;;;;;;7.81;nan;101397.31;4950242;28;20278;-72
2023/10/07 02:36:12;;;;;;;16.55;8.45;;;;;;;7.89;nan;101405.88;4950754;28;20071;-72
2023/10/07 02:38:38;;;;;;;16.08;7.82;;;;;;;7.81;nan;101392.88;4950742;28;20050;-72
2023/10/07 02:41:08;;;;;;;22.48;8.07;;;;;;;7.87;nan;101401.81;4949078;28;21032;-70
2023/10/07 02:43:42;;;;;;;19.35;7.97;;;;;;;7.86;nan;101393.13;4948474;28;20023;-71
2023/10/07 02:46:08;;;;;;;20.80;7.88;;;;;;;7.80;nan;101382.56;4952539;28;20035;-71
2023/10/07 02:48:38;;;;;;;16.52;8.25;;;;;;;7.77;nan;101370.63;4951198;28;20035;-70
2023/10/07 02:51:09;;;;;;;16.05;8.07;;;;;;;7.82;nan;101388.44;4952327;28;20042;-72
2023/10/07 02:53:35;;;;;;;18.60;7.75;;;;;;;7.78;nan;101390.63;4949046;28;20039;-72
2023/10/07 02:56:16;;;;;;;19.83;7.93;;;;;;;7.81;nan;101397.31;4949602;28;20023;-73
2023/10/07 02:58:51;;;;;;;20.15;8.05;;;;;;;7.73;nan;101392.16;4947986;28;22815;-72
2023/10/07 03:01:25;;;;;;;18.73;8.60;;;;;;;7.71;nan;101396.75;4951224;28;20046;-73
2023/10/07 03:03:51;;;;;;;19.92;8.13;;;;;;;7.62;nan;101388.19;4951026;28;20086;-72
2023/10/07 03:06:25;;;;;;;20.63;8.20;;;;;;;7.58;nan;101382.47;4951296;28;20035;-72
2023/10/07 03:09:00;;;;;;;27.05;8.60;;;;;;;7.58;nan;101392.16;4953386;28;20065;-72
2023/10/07 03:11:39;;;;;;;21.25;8.00;;;;;;;7.64;nan;101396.69;4946059;28;20027;-72
2023/10/07 03:14:05;;;;;;;;;;;;;;;7.62;nan;101402.09;4950103;28;20035;-72
2023/10/07 03:16:35;;;;;;;17.67;8.10;;;;;;;7.56;nan;101384.47;4949364;28;19923;-72
2023/10/07 03:27:10;;;;;;;19.38;8.10;;;;;;;7.54;nan;101365.50;4947316;28;20042;-73
2023/10/07 03:29:37;;;;;;;18.50;8.25;;;;;;;7.56;nan;101388.91;4948818;28;20162;-73
2023/10/07 03:32:12;;;;;;;15.85;7.78;;;;;;;7.44;nan;101386.72;4950933;28;20366;-73
2023/10/07 03:34:45;;;;;;;17.25;8.05;;;;;;;7.36;nan;101388.63;4951358;28;20549;-73
2023/10/07 03:39:55;;;;;;;18.58;8.63;;;;;;;7.26;nan;101385.44;4950737;28;20027;-73
2023/10/07 03:42:21;;;;;;;21.40;9.10;;;;;;;7.21;nan;101383.38;4949322;28;20401;-69
2023/10/07 03:44:46;;;;;;;17.63;8.25;;;;;;;7.17;nan;101376.84;4948545;28;20394;-69
2023/10/07 03:47:15;;;;;;;21.80;8.00;;;;;;;7.16;nan;101383.06;4951101;28;20031;-69
2023/10/07 03:49:41;;;;;;;22.55;7.90;;;;;;;7.08;nan;101380.53;4951332;28;20031;-71
2023/10/07 03:52:08;;;;;;;17.35;8.05;;;;;;;6.99;nan;101367.50;4949059;28;20031;-69
2023/10/07 03:54:40;;;;;;;17.33;8.60;;;;;;;7.00;nan;101371.75;4949614;28;20444;-70
2023/10/07 03:57:07;;;;;;;19.27;8.23;;;;;;;7.10;nan;101381.16;4951243;28;20062;-71
2023/10/07 03:59:39;;;;;;;14.65;7.97;;;;;;;7.01;nan;101357.66;4950007;28;20027;-70
2023/10/07 04:04:55;;;;;;;16.15;7.72;;;;;;;7.18;nan;101399.41;4949430;28;20101;-71
2023/10/07 04:07:21;;;;;;;19.70;7.85;;;;;;;7.19;nan;101393.19;4948663;28;20445;-69
2023/10/07 04:09:46;;;;;;;13.50;7.40;;;;;;;7.10;nan;101370.69;4951006;28;20026;-69
2023/10/07 04:12:14;;;;;;;12.73;7.32;;;;;;;7.15;nan;101360.50;4946527;28;20552;-69
2023/10/07 04:14:39;;;;;;;14.20;7.15;;;;;;;7.28;nan;101380.81;4951908;28;20053;-70
2023/10/07 04:17:11;;;;;;;13.43;6.55;;;;;;;7.15;nan;101345.56;4951912;28;20047;-71
2023/10/07 04:19:52;;;;;;;17.20;7.07;;;;;;;7.18;nan;101352.25;4950284;28;20027;-70
2023/10/07 04:22:18;;;;;;;10.93;6.28;;;;;;;7.20;nan;101358.16;4948680;28;20114;-71
2023/10/07 04:24:44;;;;;;;14.65;7.45;;;;;;;7.19;nan;101364.38;4949910;28;20098;-71
2023/10/07 04:27:18;;;;;;;17.70;7.57;;;;;;;7.12;nan;101353.00;4952495;28;20027;-69
2023/10/07 04:29:44;;;;;;;14.38;7.03;;;;;;;7.17;nan;101358.50;4951192;28;20034;-72
2023/10/07 04:32:20;;;;;;;19.67;7.72;;;;;;;7.08;nan;101349.91;4952860;28;20019;-75
2023/10/07 04:35:06;;;;;;;19.60;7.35;;;;;;;7.13;nan;101367.72;4951792;29;20034;-72
2023/10/07 04:37:47;;;;;;;21.52;7.38;;;;;;;7.14;nan;101374.59;4944408;28;20027;-69
2023/10/07 04:43:00;;;;;;;15.90;7.40;;;;;;;7.13;nan;101375.56;4974472;28;20030;-71
2023/10/07 04:45:36;;;;;;;11.73;6.30;;;;;;;6.96;nan;101348.72;4952971;28;20047;-71
2023/10/07 04:48:31;;;;;;;21.33;7.53;;;;;;;7.11;nan;101380.16;4953751;28;20089;-71
2023/10/07 04:51:04;;;;;;;10.52;6.30;;;;;;;7.09;nan;101382.13;4952157;28;20069;-72
2023/10/07 04:53:40;;;;;;;11.90;6.43;;;;;;;7.08;nan;101385.75;4950199;28;20055;-71
2023/10/07 04:56:10;;;;;;;15.27;6.90;;;;;;;6.99;nan;101377.16;4954957;28;20075;-71
2023/10/07 04:58:39;;;;;;;12.48;7.05;;;;;;;7.00;nan;101394.50;4954579;28;20031;-70
2023/10/07 05:01:56;;;;;;;16.33;7.40;;;;;;;6.80;nan;101373.25;4951132;28;20477;-72
2023/10/07 05:03:58;;;;;;;18.25;7.18;;;;;;;6.83;nan;101388.59;4941781;28;20039;-71
2023/10/07 05:06:26;;;;;;;16.75;7.93;;;;;;;6.82;nan;101392.19;4952278;28;20093;-72
2023/10/07 05:08:52;;;;;;;14.90;7.20;;;;;;;6.80;nan;101386.34;4953745;28;20031;-73
2023/10/07 05:11:18;;;;;;;11.82;7.00;;;;;;;6.79;nan;101388.13;4953775;28;20097;-73
2023/10/07 05:13:45;;;;;;;18.80;7.63;;;;;;;6.73;nan;101383.59;4951180;28;20039;-73
2023/10/07 05:16:14;;;;;;;17.10;7.32;;;;;;;6.81;nan;101394.00;4951603;28;20035;-72
2023/10/07 05:18:41;;;;;;;12.80;6.88;;;;;;;6.84;nan;101395.44;4949463;28;20042;-68
2023/10/07 05:21:07;;;;;;;16.10;7.00;;;;;;;6.85;nan;101398.88;4949477;28;20071;-71
2023/10/07 05:23:34;;;;;;;16.17;7.30;;;;;;;6.90;nan;101399.19;4950508;28;20059;-70
2023/10/07 05:26:03;;;;;;;17.77;7.47;;;;;;;;;;4949368;28;20027;-72
2023/10/07 05:28:30;;;;;;;;;;;;;;;;;;4953289;28;20089;-73
2023/10/07 05:30:57;;;;;;;18.02;6.70;;;;;;;;;;4952141;28;19925;-71
2023/10/07 05:33:25;;;;;;;28.48;7.70;;;;;;;;;;4948686;28;20038;-71
2023/10/07 05:36:13;;;;;;;22.08;8.05;;;;;;;;;;4947538;28;20035;-71
2023/10/07 05:38:38;;;;;;;23.30;8.93;;;;;;;;;;4963796;28;20518;-70
2023/10/07 05:41:06;;;;;;;21.83;9.13;;;;;;;;;;4964237;28;20039;-71
2023/10/07 05:43:31;;;;;;;27.17;9.55;;;;;;;;;;4950522;28;20037;-70
2023/10/07 05:45:58;;;;;;;30.55;9.15;;;;;;;7.06;nan;101408.69;4948930;28;20971;-70
2023/10/07 05:48:24;;;;;;;32.90;8.45;;;;;;;7.15;nan;101416.31;4949119;28;20038;-69
2023/10/07 05:50:50;;;;;;;18.98;8.55;;;;;;;7.15;nan;101407.63;4952246;28;20398;-69
2023/10/07 05:53:15;;;;;;;19.95;8.90;;;;;;;7.16;nan;101406.63;4948574;28;20051;-70
2023/10/07 05:55:42;;;;;;;19.50;8.32;;;;;;;7.23;nan;101413.63;4947667;28;20043;-69
2023/10/07 05:58:07;;;;;;;23.02;9.23;;;;;;;;;;4952502;28;20026;-70
2023/10/07 06:00:32;;;;;;;20.77;9.52;;;;;;;;;;4950362;28;20441;-69
2023/10/07 06:03:08;;;;;;;23.75;9.88;;;;;;;;;;4950767;28;20154;-71
2023/10/07 06:05:37;;;;;;;26.65;10.07;;;;;;;;;;4952118;28;20028;-73
2023/10/07 06:08:04;;;;;;;22.10;9.73;;;;;;;;;;4950634;28;20490;-73
2023/10/07 06:10:33;;;;;;;20.58;9.73;;;;;;;;;;4952593;28;20118;-71
2023/10/07 06:12:58;;;;;;;21.33;8.85;;;;;;;;;;4946877;28;20433;-71
2023/10/07 06:15:23;;;;;;;17.95;8.23;;;;;;;;;;4948792;28;20086;-71
2023/10/07 06:17:49;;;;;;;15.20;7.13;;;;;;;8.01;nan;101408.84;4948436;28;20031;-70
2023/10/07 06:20:15;;;;;;;17.48;7.68;;;;;;;8.04;nan;101403.22;4951425;28;21464;-72
2023/10/07 06:22:45;;;;;;;25.20;9.55;;;;;;;8.12;nan;101397.09;4948430;28;20442;-71
2023/10/07 06:25:12;;;;;;;13.07;8.10;;;;;;;8.21;nan;101411.75;4943513;28;20027;-72
2023/10/07 06:27:40;;;;;;;16.25;7.70;;;;;;;8.32;nan;101416.50;4948812;28;20038;-72
2023/10/07 06:30:09;;;;;;;23.17;8.77;;;;;;;8.41;nan;101419.06;4944211;28;20032;-72
2023/10/07 06:32:44;;;;;;;16.83;8.13;;;;;;;8.42;nan;101410.97;4945051;28;20123;-71
2023/10/07 06:35:14;;;;;;;15.32;8.18;;;;;;;8.50;nan;101404.81;4948591;28;20066;-72
2023/10/07 06:37:42;;;;;;;17.38;8.48;;;;;;;;;;4945702;28;20203;-72
2023/10/07 06:40:22;;;;;;;20.05;11.00;;;;;;;;;;4956866;28;20095;-74
2023/10/07 06:42:47;;;;;;;16.48;10.00;;;;;;;;;;4957055;28;20030;-74
2023/10/07 06:45:17;;;;;;;19.75;9.07;;;;;;;;;;4955305;28;20077;-73
2023/10/07 06:47:43;;;;;;;17.83;8.93;;;;;;;;;;4953840;28;20031;-73
2023/10/07 06:50:17;;;;;;;16.30;8.60;;;;;;;;;;4954066;28;20492;-73
2023/10/07 06:52:43;;;;;;;18.02;8.98;;;;;;;;;;4967284;28;20055;-73
2023/10/07 06:55:09;;;;;;;20.13;8.93;;;;;;;;;;4956179;28;20035;-74
2023/10/07 06:57:34;;;;;;;18.30;8.83;;;;;;;;;;4955023;28;20050;-73
2023/10/07 06:59:59;;;;;;;20.30;9.60;;;;;;;;;;4952045;28;20303;-73
2023/10/07 07:02:34;;;;;;;24.23;9.67;;;;;;;;;;4953460;28;20322;-73
2023/10/07 07:05:00;;;;;;;20.67;9.65;;;;;;;;;;4952913;28;20293;-74
2023/10/07 07:07:27;;;;;;;23.38;10.35;;;;;;;;;;4954983;28;20047;-73
2023/10/07 07:09:58;;;;;;;18.67;10.07;;;;;;;;;;4953538;28;20042;-74
2023/10/07 07:12:23;;;;;;;23.20;10.18;;;;;;;;;;4952393;28;20129;-73
2023/10/07 07:14:59;;;;;;;19.45;10.50;;;;;;;;;;4952564;28;20106;-73
2023/10/07 07:17:35;;;;;;;22.55;11.10;;;;;;;;;;4958716;28;20054;-74
2023/10/07 07:22:45;;;;;;;20.33;10.15;;;;;;;;;;4960630;28;20054;-72
2023/10/07 07:25:11;;;;;;;22.42;11.00;;;;;;;;;;4974231;28;20030;-72
2023/10/07 07:27:44;;;;;;;19.42;10.43;;;;;;;10.72;nan;101394.34;4974617;28;20475;-73
2023/10/07 07:30:19;;;;;;;21.10;10.82;;;;;;;;;;4989846;28;20108;-73
2023/10/07 07:32:55;;;;;;;24.27;11.32;;;;;;;11.09;nan;101410.63;4974462;28;20031;-73
2023/10/07 07:35:37;;;;;;;24.42;11.55;;;;;;;11.19;nan;101407.56;4974805;28;20037;-73
2023/10/07 07:38:11;;;;;;;20.20;11.32;;;;;;;11.31;nan;101405.13;4966076;28;20100;-73
2023/10/07 07:40:40;;;;;;;19.08;11.15;;;;;;;11.44;nan;101394.53;4955715;28;20019;-73
2023/10/07 07:43:07;;;;;;;22.88;11.60;;;;;;;11.54;nan;101399.38;4956101;28;20102;-73
2023/10/07 07:45:35;;;;;;;20.40;11.70;;;;;;;11.65;nan;101396.91;4949032;28;20047;-73
2023/10/07 07:48:05;;;;;;;24.50;12.23;;;;;;;11.84;nan;101411.06;4958727;28;20031;-74
2023/10/07 07:50:35;;;;;;;26.52;13.27;;;;;;;;;;4960492;28;20031;-74
2023/10/07 07:53:06;;;;;;;25.65;13.32;;;;;;;;;;4953749;28;20062;-73
2023/10/07 07:55:43;;;;;;;24.42;13.18;;;;;;;12.23;nan;101403.22;4966751;28;20570;-72
2023/10/07 07:58:12;;;;;;;28.15;14.40;;;;;;;12.39;nan;101405.38;4952932;28;20067;-72
2023/10/07 08:00:58;;;;;;;28.08;15.07;;;;;;;12.50;nan;101415.28;4955608;28;20057;-75
2023/10/07 08:03:26;;;;;;;30.85;15.30;;;;;;;13.08;nan;101480.38;4960114;28;20548;-73
2023/10/07 08:05:53;;;;;;;25.55;14.88;;;;;;;12.73;nan;101401.50;4958237;28;20105;-73
2023/10/07 08:08:19;;;;;;;27.17;15.27;;;;;;;12.85;nan;101398.97;4960587;28;20840;-72
2023/10/07 08:10:46;;;;;;;27.33;15.63;;;;;;;13.02;nan;101401.88;4960482;28;20390;-73
2023/10/07 08:13:12;;;;;;;27.20;15.20;;;;;;;13.11;nan;101395.31;4955781;28;20023;-73
2023/10/07 08:15:41;;;;;;;32.55;15.82;;;;;;;13.32;nan;101415.28;4954440;28;20023;-72
2023/10/07 08:18:07;;;;;;;32.10;15.80;;;;;;;13.46;nan;101417.81;4957092;28;20110;-72
2023/10/07 08:20:44;;;;;;;33.70;16.58;;;;;;;13.49;nan;101397.00;4957538;28;20032;-72
2023/10/07 08:23:23;;;;;;;28.80;17.23;;;;;;;13.65;nan;101395.63;4958726;28;20476;-73
2023/10/07 08:25:54;;;;;;;31.65;17.15;;;;;;;13.81;nan;101404.81;4974119;28;20051;-72
2023/10/07 08:28:23;;;;;;;33.08;17.85;;;;;;;13.96;nan;101397.31;4958540;28;20367;-73
2023/10/07 08:30:49;;;;;;;;;;;;;;;14.15;nan;101398.09;4959285;28;20023;-74
2023/10/07 08:33:15;;;;;;;30.05;17.17;;;;;;;14.28;nan;101404.25;4960756;28;19915;-73
2023/10/07 08:35:43;;;;;;;30.38;16.90;;;;;;;14.37;nan;101398.41;4959025;28;20067;-73
2023/10/07 08:39:12;;;;;;;30.47;16.20;;;;;;;14.52;nan;101399.81;4957586;28;20023;-73
2023/10/07 08:41:07;;;;;;;23.85;15.48;;;;;;;14.65;nan;101387.22;4955428;28;20062;-74
2023/10/07 08:44:21;;;;;;;32.35;17.58;;;;;;;14.84;nan;101401.19;4955011;28;20485;-73
2023/10/07 08:46:20;;;;;;;25.00;15.98;;;;;;;14.89;nan;101385.41;4952487;28;20137;-73
2023/10/07 08:48:49;;;;;;;29.13;15.27;;;;;;;15.12;nan;101404.22;4956550;28;20160;-73
2023/10/07 08:51:21;;;;;;;;;;;;;;;15.26;nan;101402.94;4956539;28;20082;-72
2023/10/07 08:53:47;;;;;;;31.30;15.57;;;;;;;15.38;nan;101403.75;4959271;28;19929;-73
2023/10/07 08:56:17;;;;;;;27.27;15.10;;;;;;;15.46;nan;101398.06;4959528;28;20031;-72
2023/10/07 08:58:44;;;;;;;26.23;13.95;;;;;;;15.49;nan;101380.88;4960513;28;20465;-73
2023/10/07 09:01:17;;;;;;;22.52;12.82;;;;;;;15.73;nan;101409.03;4962711;28;20023;-73
2023/10/07 09:03:49;;;;;;;23.80;12.82;;;;;;;15.75;nan;101390.19;4956758;28;20030;-72
2023/10/07 09:06:16;;;;;;;23.23;12.40;;;;;;;15.92;nan;101400.88;4959997;28;20038;-73
2023/10/07 09:08:43;;;;;;;21.55;11.40;;;;;;;16.05;nan;101395.31;4973661;28;20034;-72
2023/10/07 09:11:13;;;;;;;26.30;11.13;;;;;;;16.26;nan;101412.47;4960693;28;20461;-71
2023/10/07 09:13:39;;;;;;;;;;;;;;;16.35;nan;101396.91;4953073;28;20033;-71
2023/10/07 09:16:07;;;;;;;26.98;11.48;;;;;;;16.46;nan;101408.53;4955065;28;20387;-72
2023/10/07 09:18:39;;;;;;;18.05;10.48;;;;;;;16.52;nan;101397.75;4955671;28;20034;-72
2023/10/07 09:21:22;;;;;;;23.40;10.45;;;;;;;16.63;nan;101379.31;4954467;28;20046;-72
2023/10/07 09:23:59;;;;;;;21.55;10.98;;;;;;;16.82;nan;101386.03;4957713;28;20065;-72
2023/10/07 09:26:36;;;;;;;21.63;11.05;;;;;;;16.88;nan;101376.28;4955279;28;20078;-73
2023/10/07 09:29:15;;;;;;;19.92;10.77;;;;;;;17.05;nan;101384.25;4955470;28;20059;-73
2023/10/07 09:31:42;;;;;;;21.23;10.32;;;;;;;17.10;nan;101371.84;4954594;28;20060;-74
2023/10/07 09:34:11;;;;;;;26.75;11.35;;;;;;;17.23;nan;101371.47;4953609;28;20037;-74
2023/10/07 09:36:40;;;;;;;22.95;9.77;;;;;;;17.35;nan;101378.56;4953376;28;20367;-74
2023/10/07 09:41:38;;;;;;;16.10;8.85;;;;;;;17.62;nan;101382.13;4952928;28;20470;-74
2023/10/07 09:44:12;;;;;;;20.58;8.50;;;;;;;17.65;nan;101367.50;4952171;28;20027;-75
2023/10/07 09:46:40;;;;;;;18.40;8.27;;;;;;;17.81;nan;101377.31;4951625;28;20019;-75
2023/10/07 09:49:06;;;;;;;20.88;8.45;;;;;;;17.94;nan;101369.97;4951639;28;20023;-73
2023/10/07 09:51:35;;;;;;;16.60;8.27;;;;;;;17.98;nan;101352.41;4953951;28;20097;-73
2023/10/07 09:54:27;;;;;;;15.13;7.90;;;;;;;18.14;nan;101364.84;4954692;28;20395;-74
2023/10/07 09:57:14;;;;;;;18.08;8.38;;;;;;;18.26;nan;101354.81;4967999;28;20114;-72
2023/10/07 10:03:12;;;;;;;16.75;8.07;;;;;;;18.58;nan;101353.22;4954246;28;20199;-73
2023/10/07 10:06:07;;;;;;;12.57;6.70;;;;;;;18.66;nan;101345.56;4953969;28;20468;-72
2023/10/07 10:08:56;;;;;;;18.52;6.82;;;;;;;18.75;nan;101345.91;4953172;28;20058;-73
2023/10/07 10:11:44;;;;;;;;;;;;;;;18.83;nan;101336.63;4955339;28;20031;-73
2023/10/07 10:16:45;;;;;;;14.95;5.95;;;;;;;18.91;nan;101323.63;4956367;28;20038;-72
2023/10/07 10:19:49;;;;;;;10.52;5.40;;;;;;;18.96;nan;101304.13;4951694;28;20027;-73
2023/10/07 10:22:24;;;;;;;16.52;6.03;;;;;;;19.11;nan;101304.25;4968337;28;20029;-72
2023/10/07 10:24:59;;;;;;;13.65;5.57;;;;;;;19.25;nan;101304.56;4975465;28;20027;-72
2023/10/07 10:27:26;;;;;;;14.77;5.82;;;;;;;19.32;nan;101296.28;4973517;28;20039;-73
2023/10/07 10:30:04;;;;;;;10.60;5.75;;;;;;;19.31;nan;101287.50;4976122;28;20035;-73
2023/10/07 10:32:34;;;;;;;14.00;5.30;;;;;;;19.61;nan;101310.03;4974946;28;20015;-72
2023/10/07 10:35:03;;;;;;;10.07;4.93;;;;;;;19.63;nan;101299.88;4973008;28;20033;-72
2023/10/07 10:37:30;;;;;;;8.07;4.32;;;;;;;19.71;nan;101293.25;4958077;28;20496;-72
2023/10/07 10:40:12;;;;;;;10.52;4.47;;;;;;;19.76;nan;101290.59;4954837;28;20043;-72
2023/10/07 10:42:42;;;;;;;13.38;4.38;;;;;;;19.74;nan;101274.03;4956289;28;20110;-73
2023/10/07 10:45:19;;;;;;;7.45;3.40;;;;;;;19.90;nan;101274.84;4953076;28;20034;-71
2023/10/07 10:47:52;;;;;;;9.80;4.20;;;;;;;19.97;nan;101278.06;4955920;28;20042;-72
2023/10/07 10:50:19;;;;;;;8.80;4.30;;;;;;;20.01;nan;101262.28;4957440;28;20022;-71
2023/10/07 10:52:48;;;;;;;11.98;5.07;;;;;;;20.17;nan;101277.25;4951854;28;20047;-72
2023/10/07 10:55:17;;;;;;;11.77;5.20;;;;;;;20.21;nan;101261.47;4965994;28;20065;-72
2023/10/07 10:57:43;;;;;;;7.47;4.43;;;;;;;20.19;nan;101253.75;4951732;28;20095;-71
2023/10/07 11:00:22;;;;;;;12.82;4.32;;;;;;;20.33;nan;101265.50;4951247;28;20031;-71
2023/10/07 11:02:55;;;;;;;8.10;4.32;;;;;;;20.35;nan;101244.63;4951951;28;20019;-74
2023/10/07 11:05:22;;;;;;;12.10;4.93;;;;;;;20.49;nan;101258.22;4952109;28;20118;-72
2023/10/07 11:07:49;;;;;;;11.02;4.32;;;;;;;20.49;nan;101242.19;4952987;28;20027;-71
2023/10/07 11:10:22;;;;;;;11.23;5.60;;;;;;;20.63;nan;101236.31;4952702;28;20509;-71
2023/10/07 11:12:52;;;;;;;11.00;4.47;;;;;;;20.72;nan;101240.81;4953402;28;20039;-71
2023/10/07 11:15:27;;;;;;;8.23;4.32;;;;;;;20.82;nan;101240.78;4951417;28;20103;-73
2023/10/07 11:17:58;;;;;;;11.43;4.95;;;;;;;20.88;nan;101230.88;4950086;28;20027;-71
2023/10/07 11:20:24;;;;;;;12.10;3.92;;;;;;;20.94;nan;101232.44;4951561;28;20027;-71
2023/10/07 11:22:50;;;;;;;13.18;3.92;;;;;;;20.95;nan;101215.31;4951969;28;20023;-72
2023/10/07 11:25:16;;;;;;;9.80;4.22;;;;;;;21.04;nan;101215.53;4951156;28;20389;-72
2023/10/07 11:27:46;;;;;;;9.40;3.90;;;;;;;21.17;nan;101208.78;4954259;28;20034;-73
2023/10/07 11:30:14;;;;;;;8.18;4.18;;;;;;;21.28;nan;101220.25;4951304;28;20396;-74
2023/10/07 11:32:40;;;;;;;10.70;4.00;;;;;;;21.31;nan;101201.75;4948859;28;20031;-73
2023/10/07 11:35:20;;;;;;;10.75;3.78;;;;;;;21.38;nan;101204.94;4950308;28;20051;-74
2023/10/07 11:38:02;;;;;;;11.38;4.10;;;;;;;21.43;nan;101201.44;4951227;28;20544;-74
2023/10/07 11:40:30;;;;;;;12.05;4.40;;;;;;;21.53;nan;101195.22;4949873;28;20027;-74
2023/10/07 11:42:58;;;;;;;10.05;4.07;;;;;;;21.58;nan;101192.50;4950113;28;20078;-74
2023/10/07 11:45:26;;;;;;;9.18;4.72;;;;;;;21.59;nan;101175.31;4950489;28;20023;-74
2023/10/07 11:47:56;;;;;;;12.00;4.32;;;;;;;21.65;nan;101183.06;4947625;28;20434;-73
2023/10/07 11:50:23;;;;;;;8.98;4.50;;;;;;;21.72;nan;101180.06;4950907;28;20035;-73
2023/10/07 11:52:48;;;;;;;8.35;4.65;;;;;;;21.72;nan;101181.94;4949364;28;20055;-73
2023/10/07 11:55:17;;;;;;;11.38;4.45;;;;;;;21.70;nan;101179.53;4950611;28;20034;-74
2023/10/07 11:57:42;;;;;;;11.57;4.53;;;;;;;21.75;nan;101181.38;4949991;28;20475;-73
2023/10/07 12:00:12;;;;;;;10.25;4.30;;;;;;;21.75;nan;101182.16;4950289;28;20284;-74
2023/10/07 12:02:39;;;;;;;14.95;4.60;;;;;;;21.73;nan;101168.25;4949714;28;20536;-73
2023/10/07 12:05:07;;;;;;;11.18;4.28;;;;;;;21.76;nan;101156.94;4949725;28;20149;-74
2023/10/07 12:07:33;;;;;;;11.52;5.20;;;;;;;21.78;nan;101162.03;4950613;28;20023;-73
2023/10/07 12:09:58;;;;;;;9.65;4.35;;;;;;;21.81;nan;101164.97;4951766;28;20114;-72
2023/10/07 12:12:24;;;;;;;18.10;9.13;;;;;;;21.83;nan;101159.31;4948889;28;20114;-72
2023/10/07 12:14:49;;;;;;;25.25;12.38;;;;;;;21.80;nan;101146.47;4950474;28;20020;-72
2023/10/07 12:17:16;;;;;;;22.25;11.75;;;;;;;21.95;nan;101153.56;4951140;28;20058;-74
2023/10/07 12:19:41;;;;;;;11.27;5.47;;;;;;;21.90;nan;101132.97;4950298;28;20192;-74
2023/10/07 12:22:07;;;;;;;8.10;4.95;;;;;;;21.93;nan;101134.28;4947640;28;20118;-72
2023/10/07 12:24:33;;;;;;;12.88;4.50;;;;;;;22.07;nan;101145.94;4949240;28;20074;-72
2023/10/07 12:26:59;;;;;;;9.50;4.50;;;;;;;22.08;nan;101134.16;4948725;28;20682;-72
2023/10/07 12:29:26;;;;;;;11.63;4.53;;;;;;;22.13;nan;101138.66;4950075;28;20051;-73
2023/10/07 12:31:52;;;;;;;13.70;4.95;;;;;;;22.11;nan;101136.25;4951730;28;20031;-73
2023/10/07 12:34:19;;;;;;;12.07;5.15;;;;;;;22.18;nan;101136.72;4949951;28;20027;-72
2023/10/07 12:36:46;;;;;;;7.60;4.68;;;;;;;22.17;nan;101127.06;4964020;28;20550;-74
2023/10/07 12:39:14;;;;;;;16.20;4.80;;;;;;;22.19;nan;101121.41;4950129;28;20035;-73
2023/10/07 12:41:44;;;;;;;10.30;4.93;;;;;;;22.17;nan;101113.66;4950063;28;20509;-73
2023/10/07 12:44:10;;;;;;;10.85;4.70;;;;;;;22.21;nan;101130.00;4960499;28;20533;-71
2023/10/07 12:46:37;;;;;;;9.15;4.78;;;;;;;22.21;nan;101109.34;4949429;28;20023;-73
2023/10/07 12:49:10;;;;;;;14.95;5.40;;;;;;;22.31;nan;101121.84;4952308;28;20482;-72
2023/10/07 12:51:41;;;;;;;13.63;4.97;;;;;;;22.35;nan;101122.88;4951571;28;20082;-71